createdAt,value
2022-08-12T00:00:41.751Z,4.57
2022-08-12T00:03:27.953Z,4.38
2022-08-12T00:06:15.859Z,3.78
2022-08-12T00:09:02.080Z,4.40
2022-08-12T00:11:48.340Z,4.32
2022-08-12T00:14:34.366Z,4.00
2022-08-12T00:17:22.841Z,4.50
2022-08-12T00:20:09.530Z,4.50
2022-08-12T00:22:59.576Z,4.25
2022-08-12T00:26:21.041Z,4.90
2022-08-12T00:29:05.714Z,4.65
2022-08-12T00:31:52.079Z,4.25
2022-08-12T00:34:38.357Z,4.20
2022-08-12T00:37:24.588Z,4.07
2022-08-12T00:40:11.658Z,4.32
2022-08-12T00:42:40.602Z,3.88
2022-08-12T00:45:08.630Z,4.70
2022-08-12T00:47:36.459Z,4.30
2022-08-12T00:50:06.290Z,4.25
2022-08-12T00:52:35.231Z,4.57
2022-08-12T00:55:03.460Z,4.00
2022-08-12T00:57:32.092Z,4.50
2022-08-12T01:00:01.209Z,4.72
2022-08-12T01:02:36.936Z,5.05
2022-08-12T01:05:24.892Z,3.97
2022-08-12T01:08:11.115Z,4.30
2022-08-12T01:10:58.683Z,4.32
2022-08-12T01:13:27.072Z,4.60
2022-08-12T01:15:55.828Z,4.28
2022-08-12T01:18:24.503Z,4.40
2022-08-12T01:21:01.225Z,4.68
2022-08-12T01:23:47.357Z,4.90
2022-08-12T01:26:18.657Z,3.97
2022-08-12T01:28:47.934Z,4.63
2022-08-12T01:31:18.622Z,4.28
2022-08-12T01:34:04.693Z,4.80
2022-08-12T01:36:37.082Z,4.70
2022-08-12T01:39:05.381Z,4.65
2022-08-12T01:41:36.216Z,4.53
2022-08-12T01:44:04.446Z,4.70
2022-08-12T01:46:51.364Z,4.97
2022-08-12T01:49:45.144Z,5.20
2022-08-12T01:52:22.824Z,4.85
2022-08-12T01:54:50.793Z,4.15
2022-08-12T01:57:58.432Z,4.60
2022-08-12T02:00:13.747Z,5.00
2022-08-12T02:02:47.987Z,4.80
2022-08-12T02:05:52.814Z,5.30
2022-08-12T02:08:53.634Z,5.10
2022-08-12T02:11:39.539Z,4.80
2022-08-12T02:14:32.892Z,4.45
2022-08-12T02:17:05.345Z,4.85
2022-08-12T02:19:48.925Z,5.10
2022-08-12T02:22:28.705Z,4.70
2022-08-12T02:24:58.906Z,4.80
2022-08-12T02:27:27.985Z,4.70
2022-08-12T02:29:55.399Z,5.15
2022-08-12T02:32:22.892Z,5.30
2022-08-12T02:34:50.695Z,5.35
2022-08-12T02:37:18.641Z,4.97
2022-08-12T02:39:48.394Z,4.72
2022-08-12T02:42:16.899Z,5.28
2022-08-12T02:44:46.132Z,5.22
2022-08-12T02:47:58.720Z,4.88
2022-08-12T02:50:04.613Z,4.60
2022-08-12T02:52:33.646Z,5.20
2022-08-12T02:55:06.293Z,5.00
2022-08-12T02:57:34.538Z,5.05
2022-08-12T03:00:03.729Z,4.78
2022-08-12T03:02:31.867Z,5.85
2022-08-12T03:04:59.775Z,6.03
2022-08-12T03:07:40.620Z,5.15
2022-08-12T03:10:16.051Z,4.65
2022-08-12T03:12:49.410Z,5.05
2022-08-12T03:15:22.557Z,5.05
2022-08-12T03:18:25.702Z,4.82
2022-08-12T03:20:52.174Z,4.65
2022-08-12T03:23:30.102Z,5.60
2022-08-12T03:25:59.562Z,5.70
2022-08-12T03:28:45.468Z,5.45
2022-08-12T03:31:15.720Z,5.10
2022-08-12T03:34:00.440Z,5.50
2022-08-12T03:36:30.868Z,5.43
2022-08-12T03:39:16.930Z,5.18
2022-08-12T03:41:58.090Z,5.20
2022-08-12T03:44:53.299Z,5.20
2022-08-12T03:47:42.716Z,5.53
2022-08-12T03:50:28.883Z,5.50
2022-08-12T03:53:14.848Z,5.20
2022-08-12T03:56:00.818Z,5.57
2022-08-12T03:58:47.974Z,6.65
2022-08-12T04:01:15.444Z,6.05
2022-08-12T04:03:52.396Z,5.68
2022-08-12T04:06:34.775Z,5.85
2022-08-12T04:09:16.208Z,5.18
2022-08-12T04:12:03.610Z,5.03
2022-08-12T04:14:31.792Z,5.68
2022-08-12T04:16:59.466Z,5.53
2022-08-12T04:19:26.869Z,6.13
2022-08-12T04:22:01.721Z,6.13
2022-08-12T04:24:30.126Z,6.03
2022-08-12T04:26:57.541Z,6.05
2022-08-12T04:30:29.581Z,5.32
2022-08-12T04:32:15.920Z,5.88
2022-08-12T04:34:44.111Z,6.28
2022-08-12T04:37:12.204Z,5.75
2022-08-12T04:39:40.912Z,5.63
2022-08-12T04:42:08.375Z,5.78
2022-08-12T04:44:35.818Z,5.70
2022-08-12T04:47:03.342Z,6.00
2022-08-12T04:49:31.742Z,5.90
2022-08-12T04:51:59.859Z,5.43
2022-08-12T04:54:28.111Z,5.72
2022-08-12T04:57:03.727Z,7.00
2022-08-12T04:59:47.141Z,6.18
2022-08-12T05:02:21.751Z,6.00
2022-08-12T05:04:53.411Z,5.25
2022-08-12T05:07:24.333Z,6.25
2022-08-12T05:10:00.161Z,6.38
2022-08-12T05:12:33.897Z,6.07
2022-08-12T05:15:01.432Z,6.38
2022-08-12T05:17:28.941Z,6.40
2022-08-12T05:19:58.065Z,6.03
2022-08-12T05:22:28.803Z,6.53
2022-08-12T05:24:56.265Z,6.53
2022-08-12T05:27:23.766Z,5.88
2022-08-12T05:30:07.386Z,6.35
2022-08-12T05:32:37.791Z,5.95
2022-08-12T05:35:09.145Z,5.95
2022-08-12T05:37:36.607Z,6.78
2022-08-12T05:40:10.547Z,5.95
2022-08-12T05:42:39.101Z,6.43
2022-08-12T05:45:07.270Z,7.13
2022-08-12T05:47:42.734Z,7.10
2022-08-12T05:50:21.796Z,6.68
2022-08-12T05:52:49.314Z,6.18
2022-08-12T05:55:20.526Z,6.45
2022-08-12T05:57:53.662Z,6.40
2022-08-12T06:00:21.982Z,6.97
2022-08-12T06:02:49.364Z,6.70
2022-08-12T06:05:16.859Z,6.97
2022-08-12T06:08:01.932Z,7.00
2022-08-12T06:10:32.371Z,6.25
2022-08-12T06:13:03.821Z,7.10
2022-08-12T06:15:31.531Z,6.38
2022-08-12T06:18:16.075Z,6.25
2022-08-12T06:20:44.157Z,6.63
2022-08-12T06:23:12.028Z,6.95
2022-08-12T06:25:40.045Z,6.05
2022-08-12T06:28:21.397Z,7.07
2022-08-12T06:31:14.898Z,7.05
2022-08-12T06:33:55.389Z,6.40
2022-08-12T06:36:29.328Z,6.32
2022-08-12T06:38:57.172Z,6.93
2022-08-12T06:42:05.173Z,7.45
2022-08-12T06:44:31.528Z,7.15
2022-08-12T06:46:58.936Z,6.60
2022-08-12T06:49:27.750Z,7.18
2022-08-12T06:51:56.545Z,6.90
2022-08-12T06:54:30.830Z,6.88
2022-08-12T06:58:01.926Z,7.13
2022-08-12T06:59:46.332Z,7.05
2022-08-12T07:02:13.789Z,7.55
2022-08-12T07:04:41.346Z,6.97
2022-08-12T07:07:10.000Z,8.27
2022-08-12T07:09:58.036Z,8.50
2022-08-12T07:12:28.363Z,7.90
2022-08-12T07:14:56.729Z,8.02
2022-08-12T07:17:24.213Z,8.88
2022-08-12T07:19:52.130Z,8.55
2022-08-12T07:22:19.995Z,8.45
2022-08-12T07:25:07.392Z,8.55
2022-08-12T07:27:42.882Z,7.93
2022-08-12T07:30:10.699Z,8.48
2022-08-12T07:32:38.191Z,8.13
2022-08-12T07:35:05.890Z,8.30
2022-08-12T07:37:33.639Z,8.07
2022-08-12T07:40:01.499Z,8.23
2022-08-12T07:42:29.929Z,7.93
2022-08-12T07:44:57.531Z,7.80
2022-08-12T07:47:27.016Z,8.13
2022-08-12T07:50:03.229Z,7.95
2022-08-12T07:52:35.136Z,8.05
2022-08-12T07:55:02.908Z,9.23
2022-08-12T07:57:32.655Z,8.93
2022-08-12T08:00:05.854Z,9.18
2022-08-12T08:02:33.934Z,9.65
2022-08-12T08:05:01.449Z,9.65
2022-08-12T08:07:30.858Z,9.48
2022-08-12T08:10:00.286Z,10.02
2022-08-12T08:12:47.354Z,10.38
2022-08-12T08:15:15.895Z,9.50
2022-08-12T08:17:59.674Z,10.00
2022-08-12T08:20:30.707Z,10.82
2022-08-12T08:22:59.978Z,10.02
2022-08-12T08:25:37.516Z,9.77
2022-08-12T08:28:23.286Z,10.20
2022-08-12T08:30:51.252Z,10.45
2022-08-12T08:33:24.433Z,9.90
2022-08-12T08:36:06.917Z,10.45
2022-08-12T08:38:57.860Z,9.27
2022-08-12T08:42:16.494Z,10.63
2022-08-12T08:44:32.325Z,10.63
2022-08-12T08:47:01.386Z,9.82
2022-08-12T08:49:29.258Z,9.68
2022-08-12T08:51:56.759Z,10.05
2022-08-12T08:54:24.826Z,9.93
2022-08-12T08:56:52.543Z,9.85
2022-08-12T08:59:23.003Z,9.75
2022-08-12T09:01:50.515Z,9.75
2022-08-12T09:05:08.783Z,9.55
2022-08-12T09:07:17.173Z,9.63
2022-08-12T09:10:01.997Z,9.63
2022-08-12T09:12:54.328Z,8.85
2022-08-12T09:15:41.649Z,9.57
2022-08-12T09:18:11.166Z,9.45
2022-08-12T09:20:39.471Z,9.52
2022-08-12T09:25:57.196Z,10.30
2022-08-12T09:28:31.399Z,9.88
2022-08-12T09:31:00.295Z,9.90
2022-08-12T09:34:29.402Z,9.43
2022-08-12T09:36:31.480Z,9.68
2022-08-12T09:40:05.535Z,9.65
2022-08-12T09:42:40.495Z,9.77
2022-08-12T09:45:23.626Z,9.38
2022-08-12T09:47:59.238Z,9.98
2022-08-12T09:50:27.892Z,9.50
2022-08-12T09:53:15.176Z,9.05
2022-08-12T09:56:05.879Z,8.45
2022-08-12T09:58:59.088Z,8.45
2022-08-12T10:01:23.199Z,8.85
2022-08-12T10:03:55.669Z,8.45
2022-08-12T10:06:36.703Z,8.60
2022-08-12T10:09:08.291Z,8.35
2022-08-12T10:12:11.491Z,7.75
2022-08-12T10:14:50.045Z,7.65
2022-08-12T10:17:21.807Z,7.78
2022-08-12T10:19:52.399Z,7.00
2022-08-12T10:22:40.068Z,7.55
2022-08-12T10:26:18.562Z,7.22
2022-08-12T10:28:41.140Z,6.55
2022-08-12T10:31:28.242Z,6.78
2022-08-12T10:34:23.527Z,6.18
2022-08-12T10:37:00.402Z,6.38
2022-08-12T10:40:02.269Z,6.10
2022-08-12T10:42:57.711Z,6.00
2022-08-12T10:45:30.311Z,5.95
2022-08-12T10:48:07.269Z,5.20
2022-08-12T10:50:58.277Z,5.80
2022-08-12T10:53:45.558Z,5.32
2022-08-12T10:56:15.493Z,5.80
2022-08-12T10:58:46.808Z,5.32
2022-08-12T11:01:50.665Z,5.00
2022-08-12T11:04:27.054Z,5.38
2022-08-12T11:07:05.076Z,5.40
2022-08-12T11:09:55.801Z,5.35
2022-08-12T11:12:57.217Z,5.68
2022-08-12T11:15:20.580Z,5.65
2022-08-12T11:17:54.070Z,5.20
2022-08-12T11:20:24.379Z,5.30
2022-08-12T11:22:58.626Z,5.45
2022-08-12T11:25:55.460Z,4.97
2022-08-12T11:28:15.032Z,5.57
2022-08-12T11:30:44.170Z,5.28
2022-08-12T11:33:24.324Z,4.85
2022-08-12T11:36:12.943Z,5.03
2022-08-12T11:38:42.107Z,4.60
2022-08-12T11:41:10.370Z,4.60
2022-08-12T11:43:50.246Z,4.50
2022-08-12T11:46:25.474Z,4.30
2022-08-12T11:48:52.987Z,4.55
2022-08-12T11:51:24.468Z,4.10
2022-08-12T11:53:56.962Z,4.00
2022-08-12T11:56:26.138Z,4.30
2022-08-12T12:02:00.778Z,4.10
2022-08-12T12:04:30.835Z,4.10
2022-08-12T12:07:07.015Z,4.55
2022-08-12T12:09:52.471Z,3.83
2022-08-12T12:12:22.808Z,4.00
2022-08-12T12:14:54.228Z,3.38
2022-08-12T12:17:22.687Z,3.60
2022-08-12T12:19:50.159Z,3.47
2022-08-12T12:22:32.008Z,3.47
2022-08-12T12:25:12.564Z,3.83
2022-08-12T12:28:05.963Z,3.42
2022-08-12T12:30:37.263Z,3.67
2022-08-12T12:33:05.568Z,3.47
2022-08-12T12:36:16.629Z,3.22
2022-08-12T12:38:20.881Z,3.20
2022-08-12T12:40:53.058Z,3.42
2022-08-12T12:43:28.591Z,3.25
2022-08-12T12:46:09.070Z,3.33
2022-08-12T12:48:36.468Z,2.72
2022-08-12T12:51:49.135Z,2.95
2022-08-12T12:54:08.005Z,2.90
2022-08-12T12:56:40.669Z,2.85
2022-08-12T12:59:56.435Z,2.92
2022-08-12T13:01:56.116Z,3.08
2022-08-12T13:04:24.797Z,3.42
2022-08-12T13:06:52.475Z,2.80
2022-08-12T13:09:22.081Z,3.38
2022-08-12T13:11:53.444Z,3.95
2022-08-12T13:14:28.094Z,2.63
2022-08-12T13:17:02.638Z,2.72
2022-08-12T13:19:37.760Z,2.90
2022-08-12T13:22:20.527Z,2.80
2022-08-12T13:24:52.090Z,2.90
2022-08-12T13:27:22.725Z,2.80
2022-08-12T13:30:03.647Z,2.83
2022-08-12T13:32:31.896Z,2.17
2022-08-12T13:35:03.791Z,2.67
2022-08-12T13:37:43.843Z,2.70
2022-08-12T13:40:19.598Z,2.50
2022-08-12T13:42:48.873Z,2.83
2022-08-12T13:45:18.630Z,2.70
2022-08-12T13:47:55.682Z,2.45
2022-08-12T13:50:36.542Z,2.83
2022-08-12T13:53:23.726Z,2.47
2022-08-12T13:55:59.773Z,2.60
2022-08-12T13:58:30.232Z,2.72
2022-08-12T14:00:58.632Z,2.22
2022-08-12T14:03:50.112Z,2.30
2022-08-12T14:06:16.550Z,2.35
2022-08-12T14:08:45.080Z,2.10
2022-08-12T14:11:18.383Z,2.10
2022-08-12T14:14:05.978Z,1.50
2022-08-12T14:16:46.976Z,1.55
2022-08-12T14:19:22.344Z,1.52
2022-08-12T14:21:59.331Z,1.92
2022-08-12T14:24:35.300Z,1.65
2022-08-12T14:27:03.403Z,1.63
2022-08-12T14:29:55.790Z,1.55
2022-08-12T14:32:23.808Z,1.60
2022-08-12T14:34:51.724Z,1.60
2022-08-12T14:37:56.265Z,1.45
2022-08-12T14:40:07.546Z,1.55
2022-08-12T14:42:35.571Z,1.40
2022-08-12T14:45:03.002Z,1.50
2022-08-12T14:47:35.445Z,1.40
2022-08-12T14:50:37.233Z,1.83
2022-08-12T14:58:31.974Z,1.50
2022-08-12T15:01:21.510Z,1.50
2022-08-12T15:03:57.081Z,1.60
2022-08-12T15:06:43.509Z,1.40
2022-08-12T15:09:16.122Z,1.33
2022-08-12T15:11:54.925Z,1.67
2022-08-12T15:14:27.569Z,1.50
2022-08-12T15:17:00.447Z,1.42
2022-08-12T15:20:30.752Z,1.48
2022-08-12T15:22:35.375Z,1.55
2022-08-12T15:25:07.576Z,1.55
2022-08-12T15:28:05.304Z,1.77
2022-08-12T15:30:30.707Z,1.70
2022-08-12T15:32:58.324Z,1.60
2022-08-12T15:35:49.846Z,1.45
2022-08-12T15:38:20.886Z,1.40
2022-08-12T15:40:49.801Z,1.60
2022-08-12T15:43:51.247Z,1.42
2022-08-12T15:46:06.571Z,1.60
2022-08-12T15:48:34.441Z,1.50
2022-08-12T15:51:02.806Z,1.23
2022-08-12T15:53:53.220Z,1.58
2022-08-12T15:56:29.644Z,1.58
2022-08-12T15:59:00.629Z,1.50
2022-08-12T16:01:35.588Z,1.40
2022-08-12T16:04:05.149Z,1.73
2022-08-12T16:09:45.375Z,1.60
2022-08-12T16:12:12.240Z,1.98
2022-08-12T16:14:40.009Z,1.83
2022-08-12T16:17:09.008Z,1.52
2022-08-12T16:20:04.906Z,1.30
2022-08-12T16:22:29.987Z,1.30
2022-08-12T16:24:57.540Z,1.73
2022-08-12T16:27:26.052Z,1.45
2022-08-12T16:29:57.764Z,1.13
2022-08-12T16:32:31.805Z,1.50
2022-08-12T16:35:00.633Z,1.33
2022-08-12T16:37:33.040Z,1.52
2022-08-12T16:40:18.991Z,1.70
2022-08-12T16:42:53.624Z,1.42
2022-08-12T16:45:32.425Z,1.40
2022-08-12T16:48:34.972Z,1.38
2022-08-12T16:51:05.925Z,1.45
2022-08-12T16:53:44.910Z,1.10
2022-08-12T16:56:14.951Z,1.38
2022-08-12T16:58:43.496Z,1.35
2022-08-12T17:01:14.175Z,1.95
2022-08-12T17:03:46.960Z,1.40
2022-08-12T17:06:27.847Z,1.60
2022-08-12T17:09:02.585Z,1.55
2022-08-12T17:11:34.027Z,2.10
2022-08-12T17:14:01.803Z,2.17
2022-08-12T17:16:29.932Z,2.10
2022-08-12T17:18:59.752Z,2.40
2022-08-12T17:21:40.938Z,2.38
2022-08-12T17:24:21.430Z,2.70
2022-08-12T17:26:50.550Z,2.95
2022-08-12T17:29:32.194Z,2.58
2022-08-12T17:32:11.414Z,2.53
2022-08-12T17:34:57.226Z,3.00
2022-08-12T17:37:24.720Z,2.42
2022-08-12T17:40:06.332Z,2.70
2022-08-12T17:42:47.330Z,2.30
2022-08-12T17:45:19.509Z,2.40
2022-08-12T17:48:04.518Z,2.53
2022-08-12T17:50:38.799Z,2.72
2022-08-12T17:53:07.994Z,2.70
2022-08-12T17:55:47.428Z,3.08
2022-08-12T17:58:21.625Z,2.72
2022-08-12T18:01:03.075Z,2.53
2022-08-12T18:04:05.270Z,2.60
2022-08-12T18:06:18.688Z,2.50
2022-08-12T18:08:57.010Z,2.63
2022-08-12T18:12:06.069Z,2.65
2022-08-12T18:14:37.321Z,2.35
2022-08-12T18:17:08.869Z,2.58
2022-08-12T18:20:05.656Z,2.67
2022-08-12T18:22:31.798Z,2.47
2022-08-12T18:25:06.710Z,2.83
2022-08-12T18:27:44.705Z,2.30
2022-08-12T18:30:20.317Z,2.40
2022-08-12T18:33:03.535Z,2.72
2022-08-12T18:35:47.866Z,2.90
2022-08-12T18:38:21.924Z,2.15
2022-08-12T18:41:09.756Z,2.22
2022-08-12T18:43:59.185Z,2.42
2022-08-12T18:46:29.944Z,2.00
2022-08-12T18:49:17.087Z,2.30
2022-08-12T18:51:55.394Z,2.40
2022-08-12T18:54:31.157Z,2.30
2022-08-12T18:57:00.870Z,2.58
2022-08-12T19:00:02.057Z,2.38
2022-08-12T19:02:21.897Z,2.55
2022-08-12T19:04:53.541Z,2.50
2022-08-12T19:07:22.853Z,2.28
2022-08-12T19:09:57.532Z,2.35
2022-08-12T19:12:55.444Z,2.40
2022-08-12T19:15:25.797Z,2.65
2022-08-12T19:18:00.268Z,2.28
2022-08-12T19:20:35.233Z,2.38
2022-08-12T19:23:08.018Z,2.20
2022-08-12T19:26:00.830Z,2.28
2022-08-12T19:28:35.604Z,2.15
2022-08-12T19:31:45.229Z,2.10
2022-08-12T19:38:02.584Z,2.40
2022-08-12T19:40:32.384Z,2.20
2022-08-12T19:43:18.338Z,2.33
2022-08-12T19:45:56.346Z,2.30
2022-08-12T19:48:30.351Z,2.42
2022-08-12T19:50:58.280Z,2.50
2022-08-12T19:53:27.421Z,1.98
2022-08-12T19:55:57.160Z,2.00
2022-08-12T19:58:25.460Z,2.10
2022-08-12T20:00:55.354Z,2.40
2022-08-12T20:03:39.218Z,2.42
2022-08-12T20:06:13.899Z,1.95
2022-08-12T20:08:49.377Z,2.30
2022-08-12T20:12:11.963Z,2.13
2022-08-12T20:14:17.876Z,2.08
2022-08-12T20:16:53.155Z,2.00
2022-08-12T20:19:53.076Z,1.88
2022-08-12T20:22:24.200Z,2.22
2022-08-12T20:24:57.372Z,2.17
2022-08-12T20:27:29.548Z,2.00
2022-08-12T20:30:14.940Z,2.00
2022-08-12T20:32:59.362Z,2.15
2022-08-12T20:36:06.352Z,1.80
2022-08-12T20:38:26.837Z,1.90
2022-08-12T20:40:55.739Z,1.90
2022-08-12T20:43:28.357Z,1.90
2022-08-12T20:45:59.269Z,1.80
2022-08-12T20:48:28.563Z,2.40
2022-08-12T20:50:57.882Z,1.95
2022-08-12T20:53:54.311Z,2.00
2022-08-12T20:56:37.563Z,1.90
2022-08-12T20:59:19.963Z,1.70
2022-08-12T21:01:49.118Z,1.95
2022-08-12T21:04:47.321Z,1.90
2022-08-12T21:07:23.451Z,2.03
2022-08-12T21:09:51.742Z,2.00
2022-08-12T21:12:28.135Z,1.80
2022-08-12T21:15:18.202Z,2.20
2022-08-12T21:18:11.342Z,1.70
2022-08-12T21:20:55.504Z,1.83
2022-08-12T21:23:23.425Z,1.80
2022-08-12T21:25:53.895Z,1.75
2022-08-12T21:28:22.452Z,2.00
2022-08-12T21:32:35.270Z,1.88
2022-08-12T21:34:07.886Z,1.92
2022-08-12T21:36:34.688Z,1.55
2022-08-12T21:39:20.908Z,1.85
2022-08-12T21:41:52.037Z,1.65
2022-08-12T21:45:45.537Z,2.00
2022-08-12T21:47:21.609Z,1.88
2022-08-12T21:50:06.234Z,1.90
2022-08-12T21:52:41.112Z,1.95
2022-08-12T21:55:18.135Z,1.83
2022-08-12T21:57:54.893Z,1.88
2022-08-12T22:00:35.050Z,1.95
2022-08-12T22:04:04.357Z,1.80
2022-08-12T22:06:30.917Z,1.85
2022-08-12T22:09:16.454Z,2.03
2022-08-12T22:11:56.052Z,1.92
2022-08-12T22:14:28.287Z,1.70
2022-08-12T22:16:56.716Z,1.88
2022-08-12T22:19:24.584Z,1.88
2022-08-12T22:21:58.859Z,1.60
2022-08-12T22:24:31.063Z,1.92
2022-08-12T22:27:18.266Z,1.70
2022-08-12T22:30:16.019Z,2.00
2022-08-12T22:32:49.889Z,2.10
2022-08-12T22:35:55.438Z,1.88
2022-08-12T22:38:24.261Z,1.85
2022-08-12T22:40:54.577Z,1.77
2022-08-12T22:43:58.917Z,2.08
2022-08-12T22:46:52.824Z,1.98
2022-08-12T22:49:36.308Z,2.00
2022-08-12T22:52:08.308Z,1.92
2022-08-12T22:54:37.647Z,1.60
2022-08-12T22:57:14.094Z,1.70
2022-08-12T22:59:55.354Z,2.03
2022-08-12T23:02:28.794Z,1.98
2022-08-12T23:04:58.006Z,1.90
2022-08-12T23:07:25.193Z,2.00
2022-08-12T23:09:52.361Z,1.90
2022-08-12T23:12:46.505Z,1.90
2022-08-12T23:15:14.595Z,2.05
2022-08-12T23:17:42.380Z,1.90
2022-08-12T23:20:11.463Z,1.83
2022-08-12T23:22:40.228Z,1.83
2022-08-12T23:25:19.116Z,1.88
2022-08-12T23:28:29.716Z,1.88
2022-08-12T23:31:04.753Z,2.35
2022-08-12T23:34:01.557Z,2.13
2022-08-12T23:36:39.110Z,2.13
2022-08-12T23:40:15.087Z,1.58
2022-08-12T23:42:16.442Z,1.83
2022-08-12T23:44:48.596Z,1.85
2022-08-12T23:47:21.153Z,2.17
2022-08-12T23:49:57.328Z,1.67
2022-08-12T23:52:33.784Z,1.67
2022-08-12T23:55:23.380Z,1.75
2022-08-12T23:58:17.700Z,1.98
